sensor_id;sensor_type;location;lat;lon;timestamp;P1;durP1;ratioP1;P2;durP2;ratioP2
62463;SDS011;48512;48.552;9.380;2024-02-28T00:01:27;47.35;;;20.98;;
62463;SDS011;48512;48.552;9.380;2024-02-28T00:03:53;52.55;;;20.52;;
62463;SDS011;48512;48.552;9.380;2024-02-28T00:06:19;48.20;;;19.92;;
62463;SDS011;48512;48.552;9.380;2024-02-28T00:08:45;48.63;;;21.05;;
62463;SDS011;48512;48.552;9.380;2024-02-28T00:11:11;46.88;;;19.65;;
62463;SDS011;48512;48.552;9.380;2024-02-28T00:13:38;41.97;;;20.00;;
62463;SDS011;48512;48.552;9.380;2024-02-28T00:16:04;49.00;;;19.50;;
62463;SDS011;48512;48.552;9.380;2024-02-28T00:18:30;46.08;;;19.60;;
62463;SDS011;48512;48.552;9.380;2024-02-28T00:20:57;45.30;;;19.55;;
62463;SDS011;48512;48.552;9.380;2024-02-28T00:23:23;44.95;;;18.92;;
62463;SDS011;48512;48.552;9.380;2024-02-28T00:25:49;44.28;;;19.40;;
62463;SDS011;48512;48.552;9.380;2024-02-28T00:28:15;42.40;;;18.33;;
62463;SDS011;48512;48.552;9.380;2024-02-28T00:30:41;44.72;;;19.10;;
62463;SDS011;48512;48.552;9.380;2024-02-28T00:33:07;47.60;;;20.67;;
62463;SDS011;48512;48.552;9.380;2024-02-28T00:35:33;43.70;;;19.98;;
62463;SDS011;48512;48.552;9.380;2024-02-28T00:38:00;51.05;;;21.48;;
62463;SDS011;48512;48.552;9.380;2024-02-28T00:40:27;52.67;;;21.80;;
62463;SDS011;48512;48.552;9.380;2024-02-28T00:42:54;61.05;;;23.70;;
62463;SDS011;48512;48.552;9.380;2024-02-28T00:45:21;51.13;;;22.00;;
62463;SDS011;48512;48.552;9.380;2024-02-28T00:47:47;55.83;;;21.80;;
62463;SDS011;48512;48.552;9.380;2024-02-28T00:50:13;55.53;;;22.42;;
62463;SDS011;48512;48.552;9.380;2024-02-28T00:52:39;52.00;;;22.35;;
62463;SDS011;48512;48.552;9.380;2024-02-28T00:55:06;47.83;;;20.45;;
62463;SDS011;48512;48.552;9.380;2024-02-28T00:57:32;46.25;;;20.33;;
62463;SDS011;48512;48.552;9.380;2024-02-28T00:59:59;45.78;;;20.48;;
62463;SDS011;48512;48.552;9.380;2024-02-28T01:02:25;46.85;;;20.08;;
62463;SDS011;48512;48.552;9.380;2024-02-28T01:04:51;49.60;;;20.20;;
62463;SDS011;48512;48.552;9.380;2024-02-28T01:07:17;43.70;;;19.70;;
62463;SDS011;48512;48.552;9.380;2024-02-28T01:09:43;44.10;;;19.35;;
62463;SDS011;48512;48.552;9.380;2024-02-28T01:12:10;46.53;;;20.00;;
62463;SDS011;48512;48.552;9.380;2024-02-28T01:14:36;43.70;;;19.83;;
62463;SDS011;48512;48.552;9.380;2024-02-28T01:17:02;47.55;;;20.98;;
62463;SDS011;48512;48.552;9.380;2024-02-28T01:19:28;43.72;;;21.27;;
62463;SDS011;48512;48.552;9.380;2024-02-28T01:21:54;46.33;;;20.33;;
62463;SDS011;48512;48.552;9.380;2024-02-28T01:24:20;47.90;;;20.92;;
62463;SDS011;48512;48.552;9.380;2024-02-28T01:26:47;43.65;;;21.05;;
62463;SDS011;48512;48.552;9.380;2024-02-28T01:29:13;46.05;;;20.45;;
62463;SDS011;48512;48.552;9.380;2024-02-28T01:31:40;44.35;;;19.70;;
62463;SDS011;48512;48.552;9.380;2024-02-28T01:34:06;41.38;;;19.58;;
62463;SDS011;48512;48.552;9.380;2024-02-28T01:36:32;44.08;;;19.58;;
62463;SDS011;48512;48.552;9.380;2024-02-28T01:38:58;42.90;;;19.88;;
62463;SDS011;48512;48.552;9.380;2024-02-28T01:41:24;43.70;;;19.25;;
62463;SDS011;48512;48.552;9.380;2024-02-28T01:43:50;42.30;;;19.08;;
62463;SDS011;48512;48.552;9.380;2024-02-28T01:48:51;39.83;;;18.42;;
62463;SDS011;48512;48.552;9.380;2024-02-28T01:51:19;45.40;;;20.13;;
62463;SDS011;48512;48.552;9.380;2024-02-28T01:53:47;42.58;;;19.08;;
62463;SDS011;48512;48.552;9.380;2024-02-28T01:56:14;45.15;;;19.15;;
62463;SDS011;48512;48.552;9.380;2024-02-28T01:58:45;46.00;;;20.77;;
62463;SDS011;48512;48.552;9.380;2024-02-28T02:01:16;40.95;;;18.30;;
62463;SDS011;48512;48.552;9.380;2024-02-28T02:03:48;42.17;;;19.38;;
62463;SDS011;48512;48.552;9.380;2024-02-28T02:06:14;48.53;;;20.60;;
62463;SDS011;48512;48.552;9.380;2024-02-28T02:08:40;46.25;;;19.17;;
62463;SDS011;48512;48.552;9.380;2024-02-28T02:11:07;44.80;;;19.23;;
62463;SDS011;48512;48.552;9.380;2024-02-28T02:13:33;41.78;;;19.30;;
62463;SDS011;48512;48.552;9.380;2024-02-28T02:16:01;43.72;;;19.75;;
62463;SDS011;48512;48.552;9.380;2024-02-28T02:18:27;36.47;;;17.33;;
62463;SDS011;48512;48.552;9.380;2024-02-28T02:20:54;38.10;;;17.63;;
62463;SDS011;48512;48.552;9.380;2024-02-28T02:23:28;42.60;;;18.00;;
62463;SDS011;48512;48.552;9.380;2024-02-28T02:25:54;43.60;;;18.65;;
62463;SDS011;48512;48.552;9.380;2024-02-28T02:28:20;43.55;;;18.75;;
62463;SDS011;48512;48.552;9.380;2024-02-28T02:30:46;45.85;;;19.23;;
62463;SDS011;48512;48.552;9.380;2024-02-28T02:33:13;42.20;;;18.73;;
62463;SDS011;48512;48.552;9.380;2024-02-28T02:35:39;40.40;;;17.70;;
62463;SDS011;48512;48.552;9.380;2024-02-28T02:38:05;40.13;;;18.55;;
62463;SDS011;48512;48.552;9.380;2024-02-28T02:40:31;41.42;;;18.35;;
62463;SDS011;48512;48.552;9.380;2024-02-28T02:42:57;42.42;;;18.98;;
62463;SDS011;48512;48.552;9.380;2024-02-28T02:45:23;39.53;;;18.25;;
62463;SDS011;48512;48.552;9.380;2024-02-28T02:47:50;42.40;;;18.88;;
62463;SDS011;48512;48.552;9.380;2024-02-28T02:50:16;45.67;;;18.20;;
62463;SDS011;48512;48.552;9.380;2024-02-28T02:52:42;41.70;;;19.85;;
62463;SDS011;48512;48.552;9.380;2024-02-28T02:55:08;46.15;;;20.17;;
62463;SDS011;48512;48.552;9.380;2024-02-28T02:57:35;37.92;;;18.15;;
62463;SDS011;48512;48.552;9.380;2024-02-28T03:00:01;44.03;;;18.65;;
62463;SDS011;48512;48.552;9.380;2024-02-28T03:02:27;42.25;;;18.60;;
62463;SDS011;48512;48.552;9.380;2024-02-28T03:04:53;42.90;;;19.67;;
62463;SDS011;48512;48.552;9.380;2024-02-28T03:07:19;36.55;;;16.88;;
62463;SDS011;48512;48.552;9.380;2024-02-28T03:09:45;39.42;;;17.58;;
62463;SDS011;48512;48.552;9.380;2024-02-28T03:12:12;36.92;;;18.13;;
62463;SDS011;48512;48.552;9.380;2024-02-28T03:14:38;44.22;;;18.77;;
62463;SDS011;48512;48.552;9.380;2024-02-28T03:17:04;44.25;;;18.90;;
62463;SDS011;48512;48.552;9.380;2024-02-28T03:19:30;41.30;;;18.65;;
62463;SDS011;48512;48.552;9.380;2024-02-28T03:21:56;43.78;;;18.02;;
62463;SDS011;48512;48.552;9.380;2024-02-28T03:24:22;44.35;;;19.33;;
62463;SDS011;48512;48.552;9.380;2024-02-28T03:26:51;48.97;;;20.20;;
62463;SDS011;48512;48.552;9.380;2024-02-28T03:29:17;42.17;;;18.92;;
62463;SDS011;48512;48.552;9.380;2024-02-28T03:31:43;41.47;;;18.27;;
62463;SDS011;48512;48.552;9.380;2024-02-28T03:34:09;43.08;;;19.73;;
62463;SDS011;48512;48.552;9.380;2024-02-28T03:36:35;39.60;;;18.48;;
62463;SDS011;48512;48.552;9.380;2024-02-28T03:39:02;41.67;;;18.55;;
62463;SDS011;48512;48.552;9.380;2024-02-28T03:41:28;44.80;;;20.40;;
62463;SDS011;48512;48.552;9.380;2024-02-28T03:43:54;43.72;;;18.42;;
62463;SDS011;48512;48.552;9.380;2024-02-28T03:46:20;44.45;;;19.95;;
62463;SDS011;48512;48.552;9.380;2024-02-28T03:48:47;41.33;;;19.90;;
62463;SDS011;48512;48.552;9.380;2024-02-28T03:51:13;44.28;;;19.08;;
62463;SDS011;48512;48.552;9.380;2024-02-28T03:53:40;45.50;;;19.38;;
62463;SDS011;48512;48.552;9.380;2024-02-28T03:56:06;42.10;;;19.65;;
62463;SDS011;48512;48.552;9.380;2024-02-28T03:58:32;45.42;;;18.77;;
62463;SDS011;48512;48.552;9.380;2024-02-28T04:00:59;38.05;;;18.23;;
62463;SDS011;48512;48.552;9.380;2024-02-28T04:03:25;43.45;;;20.05;;
62463;SDS011;48512;48.552;9.380;2024-02-28T04:05:51;38.58;;;18.42;;
62463;SDS011;48512;48.552;9.380;2024-02-28T04:08:17;45.55;;;19.38;;
62463;SDS011;48512;48.552;9.380;2024-02-28T04:10:43;44.17;;;19.10;;
62463;SDS011;48512;48.552;9.380;2024-02-28T04:13:09;43.83;;;20.55;;
62463;SDS011;48512;48.552;9.380;2024-02-28T04:15:35;41.88;;;18.48;;
62463;SDS011;48512;48.552;9.380;2024-02-28T04:18:03;43.45;;;20.38;;
62463;SDS011;48512;48.552;9.380;2024-02-28T04:20:29;34.60;;;16.38;;
62463;SDS011;48512;48.552;9.380;2024-02-28T04:22:55;41.55;;;18.65;;
62463;SDS011;48512;48.552;9.380;2024-02-28T04:25:21;39.47;;;18.73;;
62463;SDS011;48512;48.552;9.380;2024-02-28T04:27:47;38.85;;;18.13;;
62463;SDS011;48512;48.552;9.380;2024-02-28T04:30:16;38.25;;;18.08;;
62463;SDS011;48512;48.552;9.380;2024-02-28T04:32:43;39.88;;;18.10;;
62463;SDS011;48512;48.552;9.380;2024-02-28T04:35:09;39.15;;;18.77;;
62463;SDS011;48512;48.552;9.380;2024-02-28T04:37:35;34.85;;;16.83;;
62463;SDS011;48512;48.552;9.380;2024-02-28T04:40:02;41.88;;;19.02;;
62463;SDS011;48512;48.552;9.380;2024-02-28T04:42:29;40.67;;;19.13;;
62463;SDS011;48512;48.552;9.380;2024-02-28T04:44:55;38.63;;;18.85;;
62463;SDS011;48512;48.552;9.380;2024-02-28T04:47:21;37.50;;;17.45;;
62463;SDS011;48512;48.552;9.380;2024-02-28T04:49:48;39.40;;;18.75;;
62463;SDS011;48512;48.552;9.380;2024-02-28T04:52:14;42.22;;;19.30;;
62463;SDS011;48512;48.552;9.380;2024-02-28T04:54:40;43.00;;;20.20;;
62463;SDS011;48512;48.552;9.380;2024-02-28T04:57:06;40.90;;;19.02;;
62463;SDS011;48512;48.552;9.380;2024-02-28T04:59:32;38.70;;;17.38;;
62463;SDS011;48512;48.552;9.380;2024-02-28T05:01:58;39.13;;;18.30;;
62463;SDS011;48512;48.552;9.380;2024-02-28T05:04:25;45.95;;;19.55;;
62463;SDS011;48512;48.552;9.380;2024-02-28T05:06:51;38.67;;;18.27;;
62463;SDS011;48512;48.552;9.380;2024-02-28T05:09:17;37.42;;;18.70;;
62463;SDS011;48512;48.552;9.380;2024-02-28T05:11:43;37.10;;;17.52;;
62463;SDS011;48512;48.552;9.380;2024-02-28T05:14:10;41.80;;;18.77;;
62463;SDS011;48512;48.552;9.380;2024-02-28T05:16:36;42.55;;;18.92;;
62463;SDS011;48512;48.552;9.380;2024-02-28T05:19:02;39.50;;;17.95;;
62463;SDS011;48512;48.552;9.380;2024-02-28T05:21:30;40.45;;;18.98;;
62463;SDS011;48512;48.552;9.380;2024-02-28T05:23:56;41.17;;;18.67;;
62463;SDS011;48512;48.552;9.380;2024-02-28T05:26:22;40.15;;;17.75;;
62463;SDS011;48512;48.552;9.380;2024-02-28T05:28:48;41.85;;;18.63;;
62463;SDS011;48512;48.552;9.380;2024-02-28T05:33:47;42.08;;;18.85;;
62463;SDS011;48512;48.552;9.380;2024-02-28T05:36:13;38.88;;;18.08;;
62463;SDS011;48512;48.552;9.380;2024-02-28T05:38:39;39.28;;;18.63;;
62463;SDS011;48512;48.552;9.380;2024-02-28T05:41:05;38.42;;;18.17;;
62463;SDS011;48512;48.552;9.380;2024-02-28T05:43:32;46.58;;;18.88;;
62463;SDS011;48512;48.552;9.380;2024-02-28T05:45:58;41.20;;;18.25;;
62463;SDS011;48512;48.552;9.380;2024-02-28T05:48:24;41.70;;;18.88;;
62463;SDS011;48512;48.552;9.380;2024-02-28T05:50:50;42.80;;;18.25;;
62463;SDS011;48512;48.552;9.380;2024-02-28T05:53:16;38.45;;;17.42;;
62463;SDS011;48512;48.552;9.380;2024-02-28T05:55:42;38.78;;;18.73;;
62463;SDS011;48512;48.552;9.380;2024-02-28T05:58:08;41.00;;;18.92;;
62463;SDS011;48512;48.552;9.380;2024-02-28T06:00:34;37.63;;;17.73;;
62463;SDS011;48512;48.552;9.380;2024-02-28T06:03:00;40.75;;;18.13;;
62463;SDS011;48512;48.552;9.380;2024-02-28T06:05:26;39.75;;;18.02;;
62463;SDS011;48512;48.552;9.380;2024-02-28T06:07:52;42.83;;;18.88;;
62463;SDS011;48512;48.552;9.380;2024-02-28T06:10:19;45.10;;;19.50;;
62463;SDS011;48512;48.552;9.380;2024-02-28T06:12:46;43.67;;;18.60;;
62463;SDS011;48512;48.552;9.380;2024-02-28T06:15:12;38.10;;;17.60;;
62463;SDS011;48512;48.552;9.380;2024-02-28T06:17:39;41.38;;;19.10;;
62463;SDS011;48512;48.552;9.380;2024-02-28T06:20:05;42.90;;;19.50;;
62463;SDS011;48512;48.552;9.380;2024-02-28T06:22:32;49.15;;;21.42;;
62463;SDS011;48512;48.552;9.380;2024-02-28T06:24:58;43.00;;;19.00;;
62463;SDS011;48512;48.552;9.380;2024-02-28T06:27:24;45.40;;;20.33;;
62463;SDS011;48512;48.552;9.380;2024-02-28T06:29:52;40.65;;;17.95;;
62463;SDS011;48512;48.552;9.380;2024-02-28T06:32:18;42.63;;;18.13;;
62463;SDS011;48512;48.552;9.380;2024-02-28T06:34:44;41.08;;;18.08;;
62463;SDS011;48512;48.552;9.380;2024-02-28T06:37:10;43.85;;;20.02;;
62463;SDS011;48512;48.552;9.380;2024-02-28T06:39:37;43.50;;;19.15;;
62463;SDS011;48512;48.552;9.380;2024-02-28T06:42:03;38.40;;;17.70;;
62463;SDS011;48512;48.552;9.380;2024-02-28T06:44:29;44.90;;;19.42;;
62463;SDS011;48512;48.552;9.380;2024-02-28T06:46:55;46.92;;;19.38;;
62463;SDS011;48512;48.552;9.380;2024-02-28T06:49:21;50.90;;;21.13;;
62463;SDS011;48512;48.552;9.380;2024-02-28T06:51:48;45.22;;;20.23;;
62463;SDS011;48512;48.552;9.380;2024-02-28T06:54:14;40.58;;;18.27;;
62463;SDS011;48512;48.552;9.380;2024-02-28T06:56:40;46.65;;;19.38;;
62463;SDS011;48512;48.552;9.380;2024-02-28T06:59:06;39.65;;;18.63;;
62463;SDS011;48512;48.552;9.380;2024-02-28T07:01:33;41.15;;;18.40;;
62463;SDS011;48512;48.552;9.380;2024-02-28T07:03:59;40.72;;;18.23;;
62463;SDS011;48512;48.552;9.380;2024-02-28T07:06:25;38.88;;;18.33;;
62463;SDS011;48512;48.552;9.380;2024-02-28T07:08:51;46.78;;;19.60;;
62463;SDS011;48512;48.552;9.380;2024-02-28T07:11:17;40.88;;;19.70;;
62463;SDS011;48512;48.552;9.380;2024-02-28T07:13:43;41.88;;;19.35;;
62463;SDS011;48512;48.552;9.380;2024-02-28T07:16:09;40.40;;;17.73;;
62463;SDS011;48512;48.552;9.380;2024-02-28T07:18:35;42.78;;;19.20;;
62463;SDS011;48512;48.552;9.380;2024-02-28T07:21:01;40.80;;;18.33;;
62463;SDS011;48512;48.552;9.380;2024-02-28T07:23:27;55.38;;;22.30;;
62463;SDS011;48512;48.552;9.380;2024-02-28T07:25:54;62.85;;;24.55;;
62463;SDS011;48512;48.552;9.380;2024-02-28T07:28:20;57.20;;;22.30;;
62463;SDS011;48512;48.552;9.380;2024-02-28T07:30:46;47.25;;;19.30;;
62463;SDS011;48512;48.552;9.380;2024-02-28T07:33:13;63.22;;;24.27;;
62463;SDS011;48512;48.552;9.380;2024-02-28T07:35:46;53.15;;;21.48;;
62463;SDS011;48512;48.552;9.380;2024-02-28T07:38:17;54.35;;;21.88;;
62463;SDS011;48512;48.552;9.380;2024-02-28T07:40:47;49.88;;;20.65;;
62463;SDS011;48512;48.552;9.380;2024-02-28T07:43:13;48.58;;;20.58;;
62463;SDS011;48512;48.552;9.380;2024-02-28T07:45:39;46.88;;;19.98;;
62463;SDS011;48512;48.552;9.380;2024-02-28T07:48:06;45.90;;;20.80;;
62463;SDS011;48512;48.552;9.380;2024-02-28T07:50:32;46.45;;;20.27;;
62463;SDS011;48512;48.552;9.380;2024-02-28T07:52:58;42.83;;;19.20;;
62463;SDS011;48512;48.552;9.380;2024-02-28T07:55:24;46.47;;;19.80;;
62463;SDS011;48512;48.552;9.380;2024-02-28T07:57:51;48.25;;;21.08;;
62463;SDS011;48512;48.552;9.380;2024-02-28T08:00:18;42.58;;;18.63;;
62463;SDS011;48512;48.552;9.380;2024-02-28T08:02:45;45.80;;;18.13;;
62463;SDS011;48512;48.552;9.380;2024-02-28T08:05:13;44.17;;;18.83;;
62463;SDS011;48512;48.552;9.380;2024-02-28T08:07:39;41.58;;;18.20;;
62463;SDS011;48512;48.552;9.380;2024-02-28T08:10:05;39.03;;;18.33;;
62463;SDS011;48512;48.552;9.380;2024-02-28T08:12:32;46.30;;;17.98;;
62463;SDS011;48512;48.552;9.380;2024-02-28T08:14:58;41.30;;;18.60;;
62463;SDS011;48512;48.552;9.380;2024-02-28T08:17:24;41.72;;;18.55;;
62463;SDS011;48512;48.552;9.380;2024-02-28T08:19:50;37.67;;;17.55;;
62463;SDS011;48512;48.552;9.380;2024-02-28T08:22:16;45.15;;;20.25;;
62463;SDS011;48512;48.552;9.380;2024-02-28T08:24:42;38.15;;;17.25;;
62463;SDS011;48512;48.552;9.380;2024-02-28T08:27:08;40.30;;;18.33;;
62463;SDS011;48512;48.552;9.380;2024-02-28T08:29:35;44.03;;;19.05;;
62463;SDS011;48512;48.552;9.380;2024-02-28T08:32:01;45.30;;;18.38;;
62463;SDS011;48512;48.552;9.380;2024-02-28T08:34:28;39.88;;;17.92;;
62463;SDS011;48512;48.552;9.380;2024-02-28T08:36:54;45.63;;;19.80;;
62463;SDS011;48512;48.552;9.380;2024-02-28T08:39:20;42.17;;;19.50;;
62463;SDS011;48512;48.552;9.380;2024-02-28T08:41:46;44.95;;;19.58;;
62463;SDS011;48512;48.552;9.380;2024-02-28T08:44:12;42.97;;;18.13;;
62463;SDS011;48512;48.552;9.380;2024-02-28T08:46:39;43.08;;;19.30;;
62463;SDS011;48512;48.552;9.380;2024-02-28T08:49:05;40.08;;;18.15;;
62463;SDS011;48512;48.552;9.380;2024-02-28T08:51:31;43.10;;;18.65;;
62463;SDS011;48512;48.552;9.380;2024-02-28T08:53:57;45.70;;;20.75;;
62463;SDS011;48512;48.552;9.380;2024-02-28T08:56:25;44.40;;;19.60;;
62463;SDS011;48512;48.552;9.380;2024-02-28T08:58:51;46.60;;;19.83;;
62463;SDS011;48512;48.552;9.380;2024-02-28T09:01:17;40.33;;;17.80;;
62463;SDS011;48512;48.552;9.380;2024-02-28T09:03:44;42.42;;;17.63;;
62463;SDS011;48512;48.552;9.380;2024-02-28T09:06:10;42.13;;;18.33;;
62463;SDS011;48512;48.552;9.380;2024-02-28T09:08:36;42.17;;;18.30;;
62463;SDS011;48512;48.552;9.380;2024-02-28T09:11:02;47.33;;;19.58;;
62463;SDS011;48512;48.552;9.380;2024-02-28T09:13:28;47.40;;;19.85;;
62463;SDS011;48512;48.552;9.380;2024-02-28T09:15:55;45.05;;;19.17;;
62463;SDS011;48512;48.552;9.380;2024-02-28T09:18:22;45.60;;;18.77;;
62463;SDS011;48512;48.552;9.380;2024-02-28T09:20:48;42.40;;;19.50;;
62463;SDS011;48512;48.552;9.380;2024-02-28T09:23:15;40.40;;;17.75;;
62463;SDS011;48512;48.552;9.380;2024-02-28T09:25:41;43.38;;;16.98;;
62463;SDS011;48512;48.552;9.380;2024-02-28T09:28:07;39.45;;;17.58;;
62463;SDS011;48512;48.552;9.380;2024-02-28T09:30:34;42.17;;;17.27;;
62463;SDS011;48512;48.552;9.380;2024-02-28T09:33:00;39.50;;;18.10;;
62463;SDS011;48512;48.552;9.380;2024-02-28T09:35:26;40.97;;;17.02;;
62463;SDS011;48512;48.552;9.380;2024-02-28T09:37:52;40.65;;;16.42;;
62463;SDS011;48512;48.552;9.380;2024-02-28T09:40:18;36.92;;;16.65;;
62463;SDS011;48512;48.552;9.380;2024-02-28T09:42:50;36.45;;;16.60;;
62463;SDS011;48512;48.552;9.380;2024-02-28T09:45:20;41.63;;;17.85;;
62463;SDS011;48512;48.552;9.380;2024-02-28T09:47:47;41.58;;;17.92;;
62463;SDS011;48512;48.552;9.380;2024-02-28T09:50:17;39.83;;;17.55;;
62463;SDS011;48512;48.552;9.380;2024-02-28T09:52:44;38.03;;;17.05;;
62463;SDS011;48512;48.552;9.380;2024-02-28T09:55:11;39.10;;;17.63;;
62463;SDS011;48512;48.552;9.380;2024-02-28T09:57:37;41.25;;;17.60;;
62463;SDS011;48512;48.552;9.380;2024-02-28T10:00:05;42.13;;;18.65;;
62463;SDS011;48512;48.552;9.380;2024-02-28T10:02:33;41.55;;;19.35;;
62463;SDS011;48512;48.552;9.380;2024-02-28T10:04:59;43.28;;;19.70;;
62463;SDS011;48512;48.552;9.380;2024-02-28T10:07:27;43.70;;;20.38;;
62463;SDS011;48512;48.552;9.380;2024-02-28T10:09:53;47.60;;;18.73;;
62463;SDS011;48512;48.552;9.380;2024-02-28T10:12:20;38.60;;;17.58;;
62463;SDS011;48512;48.552;9.380;2024-02-28T10:14:48;38.28;;;17.35;;
62463;SDS011;48512;48.552;9.380;2024-02-28T10:17:15;37.47;;;16.73;;
62463;SDS011;48512;48.552;9.380;2024-02-28T10:19:42;42.00;;;18.40;;
62463;SDS011;48512;48.552;9.380;2024-02-28T10:22:08;39.67;;;17.20;;
62463;SDS011;48512;48.552;9.380;2024-02-28T10:24:34;41.38;;;18.45;;
62463;SDS011;48512;48.552;9.380;2024-02-28T10:27:00;38.50;;;18.30;;
62463;SDS011;48512;48.552;9.380;2024-02-28T10:29:27;38.75;;;18.45;;
62463;SDS011;48512;48.552;9.380;2024-02-28T10:31:58;41.05;;;18.65;;
62463;SDS011;48512;48.552;9.380;2024-02-28T10:34:25;39.40;;;19.30;;
62463;SDS011;48512;48.552;9.380;2024-02-28T10:36:51;39.15;;;17.27;;
62463;SDS011;48512;48.552;9.380;2024-02-28T10:39:18;44.72;;;19.10;;
62463;SDS011;48512;48.552;9.380;2024-02-28T10:41:46;45.25;;;19.95;;
62463;SDS011;48512;48.552;9.380;2024-02-28T10:44:14;49.53;;;22.58;;
62463;SDS011;48512;48.552;9.380;2024-02-28T10:46:42;43.30;;;20.65;;
62463;SDS011;48512;48.552;9.380;2024-02-28T10:49:13;40.65;;;18.60;;
62463;SDS011;48512;48.552;9.380;2024-02-28T10:51:39;39.83;;;16.92;;
62463;SDS011;48512;48.552;9.380;2024-02-28T10:54:10;41.05;;;17.33;;
62463;SDS011;48512;48.552;9.380;2024-02-28T10:56:41;37.95;;;16.30;;
62463;SDS011;48512;48.552;9.380;2024-02-28T10:59:10;38.45;;;17.23;;
62463;SDS011;48512;48.552;9.380;2024-02-28T11:01:38;41.15;;;17.70;;
62463;SDS011;48512;48.552;9.380;2024-02-28T11:04:08;46.30;;;16.80;;
62463;SDS011;48512;48.552;9.380;2024-02-28T11:06:34;41.42;;;16.80;;
62463;SDS011;48512;48.552;9.380;2024-02-28T11:09:00;41.28;;;17.75;;
62463;SDS011;48512;48.552;9.380;2024-02-28T11:11:31;40.75;;;17.23;;
62463;SDS011;48512;48.552;9.380;2024-02-28T11:13:58;40.40;;;16.98;;
62463;SDS011;48512;48.552;9.380;2024-02-28T11:16:31;36.33;;;16.60;;
62463;SDS011;48512;48.552;9.380;2024-02-28T11:18:59;40.05;;;16.65;;
62463;SDS011;48512;48.552;9.380;2024-02-28T11:21:27;41.97;;;17.38;;
62463;SDS011;48512;48.552;9.380;2024-02-28T11:23:57;42.10;;;16.92;;
62463;SDS011;48512;48.552;9.380;2024-02-28T11:26:24;38.13;;;16.60;;
62463;SDS011;48512;48.552;9.380;2024-02-28T11:28:51;44.67;;;17.60;;
62463;SDS011;48512;48.552;9.380;2024-02-28T11:31:17;41.03;;;17.83;;
62463;SDS011;48512;48.552;9.380;2024-02-28T11:33:44;42.38;;;17.58;;
62463;SDS011;48512;48.552;9.380;2024-02-28T11:36:11;34.65;;;16.52;;
62463;SDS011;48512;48.552;9.380;2024-02-28T11:38:39;33.53;;;15.07;;
62463;SDS011;48512;48.552;9.380;2024-02-28T11:41:06;41.22;;;17.55;;
62463;SDS011;48512;48.552;9.380;2024-02-28T11:43:33;37.92;;;17.27;;
62463;SDS011;48512;48.552;9.380;2024-02-28T11:46:08;44.40;;;16.80;;
62463;SDS011;48512;48.552;9.380;2024-02-28T11:48:36;37.38;;;16.90;;
62463;SDS011;48512;48.552;9.380;2024-02-28T11:51:02;39.22;;;17.08;;
62463;SDS011;48512;48.552;9.380;2024-02-28T11:53:28;41.28;;;17.60;;
62463;SDS011;48512;48.552;9.380;2024-02-28T11:55:54;38.28;;;16.67;;
62463;SDS011;48512;48.552;9.380;2024-02-28T11:58:21;40.20;;;16.88;;
62463;SDS011;48512;48.552;9.380;2024-02-28T12:00:51;46.50;;;17.88;;
62463;SDS011;48512;48.552;9.380;2024-02-28T12:03:21;43.88;;;16.42;;
62463;SDS011;48512;48.552;9.380;2024-02-28T12:05:50;40.58;;;17.38;;
62463;SDS011;48512;48.552;9.380;2024-02-28T12:08:17;39.17;;;17.48;;
62463;SDS011;48512;48.552;9.380;2024-02-28T12:10:47;38.08;;;16.85;;
62463;SDS011;48512;48.552;9.380;2024-02-28T12:13:17;36.63;;;16.48;;
62463;SDS011;48512;48.552;9.380;2024-02-28T12:15:45;39.70;;;17.23;;
62463;SDS011;48512;48.552;9.380;2024-02-28T12:18:12;35.60;;;15.90;;
62463;SDS011;48512;48.552;9.380;2024-02-28T12:20:40;36.35;;;16.10;;
62463;SDS011;48512;48.552;9.380;2024-02-28T12:23:06;38.97;;;17.27;;
62463;SDS011;48512;48.552;9.380;2024-02-28T12:25:34;39.58;;;17.02;;
62463;SDS011;48512;48.552;9.380;2024-02-28T12:28:03;38.50;;;17.70;;
62463;SDS011;48512;48.552;9.380;2024-02-28T12:30:38;36.47;;;16.60;;
62463;SDS011;48512;48.552;9.380;2024-02-28T12:33:06;36.78;;;17.10;;
62463;SDS011;48512;48.552;9.380;2024-02-28T12:35:32;40.10;;;17.73;;
62463;SDS011;48512;48.552;9.380;2024-02-28T12:37:58;38.58;;;16.90;;
62463;SDS011;48512;48.552;9.380;2024-02-28T12:40:24;34.38;;;15.32;;
62463;SDS011;48512;48.552;9.380;2024-02-28T12:42:51;37.20;;;17.67;;
62463;SDS011;48512;48.552;9.380;2024-02-28T12:45:17;39.00;;;17.20;;
62463;SDS011;48512;48.552;9.380;2024-02-28T12:47:43;39.67;;;15.57;;
62463;SDS011;48512;48.552;9.380;2024-02-28T12:50:09;37.65;;;16.75;;
62463;SDS011;48512;48.552;9.380;2024-02-28T12:52:36;37.25;;;16.00;;
62463;SDS011;48512;48.552;9.380;2024-02-28T12:55:02;34.72;;;15.43;;
62463;SDS011;48512;48.552;9.380;2024-02-28T12:57:29;32.47;;;14.93;;
62463;SDS011;48512;48.552;9.380;2024-02-28T12:59:55;34.83;;;16.23;;
62463;SDS011;48512;48.552;9.380;2024-02-28T13:02:22;35.88;;;15.82;;
62463;SDS011;48512;48.552;9.380;2024-02-28T13:04:48;33.30;;;15.15;;
62463;SDS011;48512;48.552;9.380;2024-02-28T13:07:17;35.70;;;15.85;;
62463;SDS011;48512;48.552;9.380;2024-02-28T13:09:45;36.08;;;16.17;;
62463;SDS011;48512;48.552;9.380;2024-02-28T13:12:11;37.75;;;16.92;;
62463;SDS011;48512;48.552;9.380;2024-02-28T13:14:37;60.90;;;27.50;;
62463;SDS011;48512;48.552;9.380;2024-02-28T13:17:03;109.70;;;40.33;;
62463;SDS011;48512;48.552;9.380;2024-02-28T13:19:31;109.45;;;43.25;;
62463;SDS011;48512;48.552;9.380;2024-02-28T13:21:57;83.97;;;35.63;;
62463;SDS011;48512;48.552;9.380;2024-02-28T13:24:23;68.88;;;29.17;;
62463;SDS011;48512;48.552;9.380;2024-02-28T13:26:49;63.80;;;25.67;;
62463;SDS011;48512;48.552;9.380;2024-02-28T13:29:15;49.30;;;22.40;;
62463;SDS011;48512;48.552;9.380;2024-02-28T13:31:41;46.50;;;21.40;;
62463;SDS011;48512;48.552;9.380;2024-02-28T13:34:08;54.47;;;25.23;;
62463;SDS011;48512;48.552;9.380;2024-02-28T13:36:34;38.72;;;18.92;;
62463;SDS011;48512;48.552;9.380;2024-02-28T13:39:02;40.78;;;17.67;;
62463;SDS011;48512;48.552;9.380;2024-02-28T13:41:29;33.95;;;15.90;;
62463;SDS011;48512;48.552;9.380;2024-02-28T13:43:58;34.78;;;16.65;;
62463;SDS011;48512;48.552;9.380;2024-02-28T13:46:24;60.05;;;24.17;;
62463;SDS011;48512;48.552;9.380;2024-02-28T13:48:50;52.08;;;22.85;;
62463;SDS011;48512;48.552;9.380;2024-02-28T13:51:16;55.78;;;23.77;;
62463;SDS011;48512;48.552;9.380;2024-02-28T13:53:43;42.55;;;19.73;;
62463;SDS011;48512;48.552;9.380;2024-02-28T13:56:10;34.03;;;15.52;;
62463;SDS011;48512;48.552;9.380;2024-02-28T13:58:36;31.30;;;14.43;;
62463;SDS011;48512;48.552;9.380;2024-02-28T14:01:02;39.03;;;17.40;;
62463;SDS011;48512;48.552;9.380;2024-02-28T14:03:28;33.72;;;17.25;;
62463;SDS011;48512;48.552;9.380;2024-02-28T14:05:54;35.58;;;16.02;;
62463;SDS011;48512;48.552;9.380;2024-02-28T14:08:21;32.13;;;15.35;;
62463;SDS011;48512;48.552;9.380;2024-02-28T14:10:47;36.95;;;15.80;;
62463;SDS011;48512;48.552;9.380;2024-02-28T14:13:13;35.60;;;16.35;;
62463;SDS011;48512;48.552;9.380;2024-02-28T14:15:41;33.78;;;16.77;;
62463;SDS011;48512;48.552;9.380;2024-02-28T14:18:07;35.30;;;17.17;;
62463;SDS011;48512;48.552;9.380;2024-02-28T14:20:34;99.43;;;39.53;;
62463;SDS011;48512;48.552;9.380;2024-02-28T14:23:00;69.75;;;30.17;;